LRTR - TIMISOARA / TRAIAN VUIA

Compiled: 17:49:58 on 20/10/2018

Latest METAR/SPECI Reports

METAR LRTR 201730Z 29004KT 5000 BR NSC 14/12 Q1021 NOSIG=

Previous reports

METAR LRTR 201700Z 29004KT 6000 NSC 14/11 Q1021 BECMG 5000 BR=
METAR LRTR 201630Z 30005KT 6000 NSC 14/11 Q1021 NOSIG=
METAR LRTR 201600Z 28006KT 6000 NSC 15/11 Q1021=
METAR LRTR 201530Z 28006KT 6000 NSC 16/12 Q1021=

Latest TAF report

TAF LRTR 201700Z 2018/2118 29005KT 5000 BR NSC TEMPO 2021/2101 3000 -RA BR BKN015 OVC030 TEMPO 2101/2105 1500 BR BECMG 2105/2107 9999 NSW BECMG 2109/2111 36010KT=

Valid WARNINGS

No valid warnings for LRTR